sensor_id;sensor_type;location;lat;lon;timestamp;pressure;altitude;pressure_sealevel;temperature;humidity
80401;BME280;69727;53.132;8.230;2023-05-07T00:01:05;102000.16;;;11.26;76.08
80401;BME280;69727;53.132;8.230;2023-05-07T00:03:31;101982.56;;;11.14;76.56
80401;BME280;69727;53.132;8.230;2023-05-07T00:05:57;101993.06;;;11.27;76.19
80401;BME280;69727;53.132;8.230;2023-05-07T00:08:23;101965.81;;;11.00;76.81
80401;BME280;69727;53.132;8.230;2023-05-07T00:10:48;101994.00;;;11.23;76.22
80401;BME280;69727;53.132;8.230;2023-05-07T00:13:13;101975.50;;;11.03;76.72
80401;BME280;69727;53.132;8.230;2023-05-07T00:15:39;101996.66;;;11.21;76.77
80401;BME280;69727;53.132;8.230;2023-05-07T00:18:04;101994.00;;;11.21;76.66
80401;BME280;69727;53.132;8.230;2023-05-07T00:20:30;101990.50;;;11.11;76.81
80401;BME280;69727;53.132;8.230;2023-05-07T00:22:55;101996.66;;;11.16;76.61
80401;BME280;69727;53.132;8.230;2023-05-07T00:25:20;101997.50;;;11.22;76.32
80401;BME280;69727;53.132;8.230;2023-05-07T00:27:46;102003.66;;;11.25;76.56
80401;BME280;69727;53.132;8.230;2023-05-07T00:30:12;101989.56;;;11.20;76.52
80401;BME280;69727;53.132;8.230;2023-05-07T00:32:38;102000.16;;;11.26;76.32
80401;BME280;69727;53.132;8.230;2023-05-07T00:35:04;101986.06;;;11.16;76.41
80401;BME280;69727;53.132;8.230;2023-05-07T00:37:30;101994.00;;;11.18;76.25
80401;BME280;69727;53.132;8.230;2023-05-07T00:39:55;101992.25;;;11.06;76.28
80401;BME280;69727;53.132;8.230;2023-05-07T00:42:21;101986.97;;;11.09;76.55
80401;BME280;69727;53.132;8.230;2023-05-07T00:44:46;102001.09;;;11.10;76.59
80401;BME280;69727;53.132;8.230;2023-05-07T00:47:12;102009.91;;;11.09;76.02
80401;BME280;69727;53.132;8.230;2023-05-07T00:49:41;101996.69;;;11.01;76.30
80401;BME280;69727;53.132;8.230;2023-05-07T00:52:07;102016.09;;;10.98;76.33
80401;BME280;69727;53.132;8.230;2023-05-07T00:54:34;102014.38;;;10.88;76.71
80401;BME280;69727;53.132;8.230;2023-05-07T00:57:00;102018.78;;;10.85;76.78
80401;BME280;69727;53.132;8.230;2023-05-07T00:59:27;102009.09;;;10.80;76.71
80401;BME280;69727;53.132;8.230;2023-05-07T01:01:52;101983.50;;;10.61;76.62
80401;BME280;69727;53.132;8.230;2023-05-07T01:04:18;101990.56;;;10.59;76.92
80401;BME280;69727;53.132;8.230;2023-05-07T01:06:45;102009.09;;;10.74;76.94
80401;BME280;69727;53.132;8.230;2023-05-07T01:09:11;102005.59;;;10.63;77.05
80401;BME280;69727;53.132;8.230;2023-05-07T01:11:37;102010.88;;;10.64;77.23
80401;BME280;69727;53.132;8.230;2023-05-07T01:14:03;102001.16;;;10.62;76.79
80401;BME280;69727;53.132;8.230;2023-05-07T01:16:29;101998.50;;;10.51;77.34
80401;BME280;69727;53.132;8.230;2023-05-07T01:18:55;101998.50;;;10.50;77.30
80401;BME280;69727;53.132;8.230;2023-05-07T01:21:25;102010.00;;;10.45;77.51
80401;BME280;69727;53.132;8.230;2023-05-07T01:23:52;102007.34;;;10.47;77.62
80401;BME280;69727;53.132;8.230;2023-05-07T01:26:17;102001.16;;;10.42;77.21
80401;BME280;69727;53.132;8.230;2023-05-07T01:28:45;102016.16;;;10.48;77.45
80401;BME280;69727;53.132;8.230;2023-05-07T01:31:12;102011.75;;;10.50;77.35
80401;BME280;69727;53.132;8.230;2023-05-07T01:33:40;102006.44;;;10.53;77.41
80401;BME280;69727;53.132;8.230;2023-05-07T01:36:08;102005.59;;;10.51;76.71
80401;BME280;69727;53.132;8.230;2023-05-07T01:38:37;101998.50;;;10.48;76.73
80401;BME280;69727;53.132;8.230;2023-05-07T01:41:03;101978.25;;;10.33;76.87
80401;BME280;69727;53.132;8.230;2023-05-07T01:43:30;101998.50;;;10.42;76.81
80401;BME280;69727;53.132;8.230;2023-05-07T01:45:57;101995.00;;;10.40;77.07
80401;BME280;69727;53.132;8.230;2023-05-07T01:48:23;101994.09;;;10.25;76.90
80401;BME280;69727;53.132;8.230;2023-05-07T01:50:49;102010.88;;;10.41;76.86
80401;BME280;69727;53.132;8.230;2023-05-07T01:53:15;101992.31;;;10.31;76.93
80401;BME280;69727;53.132;8.230;2023-05-07T01:55:41;102008.16;;;10.18;77.45
80401;BME280;69727;53.132;8.230;2023-05-07T01:58:06;102002.88;;;10.10;77.48
80401;BME280;69727;53.132;8.230;2023-05-07T02:00:32;102009.06;;;10.14;77.75
80401;BME280;69727;53.132;8.230;2023-05-07T02:02:57;102015.22;;;10.21;77.36
80401;BME280;69727;53.132;8.230;2023-05-07T02:05:23;102018.75;;;10.24;77.33
80401;BME280;69727;53.132;8.230;2023-05-07T02:07:48;102024.03;;;10.20;77.29
80401;BME280;69727;53.132;8.230;2023-05-07T02:10:14;102012.59;;;10.22;76.98
80401;BME280;69727;53.132;8.230;2023-05-07T02:12:39;102021.38;;;10.24;77.06
80401;BME280;69727;53.132;8.230;2023-05-07T02:15:05;101992.28;;;10.06;76.95
80401;BME280;69727;53.132;8.230;2023-05-07T02:17:31;102020.50;;;10.22;77.28
80401;BME280;69727;53.132;8.230;2023-05-07T02:19:59;102013.44;;;10.15;77.34
80401;BME280;69727;53.132;8.230;2023-05-07T02:22:25;102024.94;;;10.17;77.18
80401;BME280;69727;53.132;8.230;2023-05-07T02:24:50;102026.66;;;10.20;77.43
80401;BME280;69727;53.132;8.230;2023-05-07T02:27:16;102023.16;;;10.21;77.32
80401;BME280;69727;53.132;8.230;2023-05-07T02:29:41;102025.78;;;10.16;77.51
80401;BME280;69727;53.132;8.230;2023-05-07T02:32:07;102025.78;;;10.19;77.51
80401;BME280;69727;53.132;8.230;2023-05-07T02:34:32;102023.16;;;10.18;77.64
80401;BME280;69727;53.132;8.230;2023-05-07T02:36:58;102030.19;;;10.23;77.20
80401;BME280;69727;53.132;8.230;2023-05-07T02:39:23;102011.69;;;10.09;77.35
80401;BME280;69727;53.132;8.230;2023-05-07T02:41:48;102020.50;;;10.15;77.11
80401;BME280;69727;53.132;8.230;2023-05-07T02:44:14;102031.06;;;10.13;77.45
80401;BME280;69727;53.132;8.230;2023-05-07T02:46:39;102016.94;;;9.97;77.73
80401;BME280;69727;53.132;8.230;2023-05-07T02:49:05;102031.06;;;10.04;78.07
80401;BME280;69727;53.132;8.230;2023-05-07T02:51:31;101980.78;;;9.78;78.03
80401;BME280;69727;53.132;8.230;2023-05-07T02:53:56;102033.72;;;10.08;77.90
80401;BME280;69727;53.132;8.230;2023-05-07T02:56:22;102016.94;;;9.91;77.88
80401;BME280;69727;53.132;8.230;2023-05-07T02:58:47;102031.88;;;9.89;78.44
80401;BME280;69727;53.132;8.230;2023-05-07T03:01:13;102032.81;;;9.96;78.32
80401;BME280;69727;53.132;8.230;2023-05-07T03:03:39;102018.69;;;9.87;78.37
80401;BME280;69727;53.132;8.230;2023-05-07T03:06:05;102035.47;;;10.00;78.32
80401;BME280;69727;53.132;8.230;2023-05-07T03:08:30;102020.47;;;9.98;78.59
80401;BME280;69727;53.132;8.230;2023-05-07T03:10:56;102016.03;;;9.90;78.70
80401;BME280;69727;53.132;8.230;2023-05-07T03:13:21;102031.91;;;9.98;78.32
80401;BME280;69727;53.132;8.230;2023-05-07T03:15:47;102015.16;;;9.90;78.41
80401;BME280;69727;53.132;8.230;2023-05-07T03:18:12;102031.91;;;9.97;77.81
80401;BME280;69727;53.132;8.230;2023-05-07T03:20:37;102018.69;;;9.86;77.30
80401;BME280;69727;53.132;8.230;2023-05-07T03:23:03;102029.25;;;9.84;77.50
80401;BME280;69727;53.132;8.230;2023-05-07T03:25:28;102023.97;;;9.83;77.43
80401;BME280;69727;53.132;8.230;2023-05-07T03:27:55;102014.25;;;9.79;77.41
80401;BME280;69727;53.132;8.230;2023-05-07T03:30:21;102023.03;;;9.74;77.94
80401;BME280;69727;53.132;8.230;2023-05-07T03:32:46;102007.19;;;9.74;77.95
80401;BME280;69727;53.132;8.230;2023-05-07T03:35:12;102016.03;;;9.83;77.34
80401;BME280;69727;53.132;8.230;2023-05-07T03:37:38;102006.22;;;9.54;77.89
80401;BME280;69727;53.132;8.230;2023-05-07T03:40:03;102022.97;;;9.54;78.02
80401;BME280;69727;53.132;8.230;2023-05-07T03:42:29;102013.28;;;9.53;78.14
80401;BME280;69727;53.132;8.230;2023-05-07T03:44:55;102017.69;;;9.56;78.09
80401;BME280;69727;53.132;8.230;2023-05-07T03:47:20;102021.22;;;9.53;78.21
80401;BME280;69727;53.132;8.230;2023-05-07T03:49:46;102037.94;;;9.57;78.53
80401;BME280;69727;53.132;8.230;2023-05-07T03:52:11;102011.44;;;9.40;78.54
80401;BME280;69727;53.132;8.230;2023-05-07T03:54:37;102020.31;;;9.47;78.48
80401;BME280;69727;53.132;8.230;2023-05-07T03:57:02;102012.38;;;9.45;78.35
80401;BME280;69727;53.132;8.230;2023-05-07T03:59:27;102035.28;;;9.55;78.46
80401;BME280;69727;53.132;8.230;2023-05-07T04:01:53;102030.03;;;9.57;78.18
80401;BME280;69727;53.132;8.230;2023-05-07T04:04:18;102022.97;;;9.48;78.67
80401;BME280;69727;53.132;8.230;2023-05-07T04:06:43;102015.91;;;9.49;78.45
80401;BME280;69727;53.132;8.230;2023-05-07T04:09:09;102023.84;;;9.52;78.58
80401;BME280;69727;53.132;8.230;2023-05-07T04:11:35;102036.16;;;9.57;78.18
80401;BME280;69727;53.132;8.230;2023-05-07T04:14:01;102024.72;;;9.57;78.18
80401;BME280;69727;53.132;8.230;2023-05-07T04:16:26;102029.16;;;9.58;77.87
80401;BME280;69727;53.132;8.230;2023-05-07T04:18:51;102015.94;;;9.55;78.07
80401;BME280;69727;53.132;8.230;2023-05-07T04:21:21;102014.19;;;9.59;77.64
80401;BME280;69727;53.132;8.230;2023-05-07T04:23:47;102030.94;;;9.71;77.81
80401;BME280;69727;53.132;8.230;2023-05-07T04:26:13;102030.97;;;9.74;77.72
80401;BME280;69727;53.132;8.230;2023-05-07T04:28:39;102038.03;;;9.76;77.63
80401;BME280;69727;53.132;8.230;2023-05-07T04:31:05;102038.03;;;9.76;77.23
80401;BME280;69727;53.132;8.230;2023-05-07T04:33:31;102025.66;;;9.67;77.22
80401;BME280;69727;53.132;8.230;2023-05-07T04:35:58;102040.63;;;9.65;77.62
80401;BME280;69727;53.132;8.230;2023-05-07T04:38:30;102031.81;;;9.60;77.42
80401;BME280;69727;53.132;8.230;2023-05-07T04:40:57;102044.13;;;9.67;77.47
80401;BME280;69727;53.132;8.230;2023-05-07T04:43:22;102023.84;;;9.55;77.39
80401;BME280;69727;53.132;8.230;2023-05-07T04:45:50;102042.34;;;9.53;78.05
80401;BME280;69727;53.132;8.230;2023-05-07T04:48:15;102022.88;;;9.30;78.59
80401;BME280;69727;53.132;8.230;2023-05-07T04:50:41;102035.22;;;9.40;78.71
80401;BME280;69727;53.132;8.230;2023-05-07T04:53:06;102028.22;;;9.45;78.19
80401;BME280;69727;53.132;8.230;2023-05-07T04:55:31;102037.03;;;9.46;78.33
80401;BME280;69727;53.132;8.230;2023-05-07T04:57:57;102035.22;;;9.43;78.66
80401;BME280;69727;53.132;8.230;2023-05-07T05:00:22;102044.09;;;9.57;78.16
80401;BME280;69727;53.132;8.230;2023-05-07T05:02:48;102057.31;;;9.61;78.41
80401;BME280;69727;53.132;8.230;2023-05-07T05:05:13;102061.72;;;9.62;78.33
80401;BME280;69727;53.132;8.230;2023-05-07T05:07:39;102061.72;;;9.60;78.48
80401;BME280;69727;53.132;8.230;2023-05-07T05:10:05;102061.72;;;9.59;79.23
80401;BME280;69727;53.132;8.230;2023-05-07T05:12:31;102040.53;;;9.45;79.11
80401;BME280;69727;53.132;8.230;2023-05-07T05:14:56;102068.78;;;9.58;79.19
80401;BME280;69727;53.132;8.230;2023-05-07T05:17:21;102059.97;;;9.61;79.37
80401;BME280;69727;53.132;8.230;2023-05-07T05:19:47;102039.63;;;9.43;79.38
80401;BME280;69727;53.132;8.230;2023-05-07T05:22:12;102044.91;;;9.41;79.98
80401;BME280;69727;53.132;8.230;2023-05-07T05:24:38;102079.25;;;9.44;80.92
80401;BME280;69727;53.132;8.230;2023-05-07T05:27:03;102058.09;;;9.35;81.00
80401;BME280;69727;53.132;8.230;2023-05-07T05:29:29;102053.63;;;9.29;81.38
80401;BME280;69727;53.132;8.230;2023-05-07T05:31:55;102064.22;;;9.34;81.03
80401;BME280;69727;53.132;8.230;2023-05-07T05:34:21;102059.88;;;9.37;81.07
80401;BME280;69727;53.132;8.230;2023-05-07T05:36:47;102070.47;;;9.44;81.11
80401;BME280;69727;53.132;8.230;2023-05-07T05:39:12;102057.25;;;9.44;80.82
80401;BME280;69727;53.132;8.230;2023-05-07T05:41:38;102060.75;;;9.40;80.50
80401;BME280;69727;53.132;8.230;2023-05-07T05:44:03;102056.38;;;9.46;80.43
80401;BME280;69727;53.132;8.230;2023-05-07T05:46:29;102054.63;;;9.44;80.17
80401;BME280;69727;53.132;8.230;2023-05-07T05:48:54;102067.81;;;9.44;80.45
80401;BME280;69727;53.132;8.230;2023-05-07T05:51:21;102074.88;;;9.49;80.35
80401;BME280;69727;53.132;8.230;2023-05-07T05:53:46;102081.97;;;9.60;80.46
80401;BME280;69727;53.132;8.230;2023-05-07T05:56:12;102087.28;;;9.61;80.29
80401;BME280;69727;53.132;8.230;2023-05-07T05:58:37;102097.84;;;9.61;80.59
80401;BME280;69727;53.132;8.230;2023-05-07T06:01:03;102071.38;;;9.53;79.74
80401;BME280;69727;53.132;8.230;2023-05-07T06:03:29;102102.19;;;9.57;80.14
80401;BME280;69727;53.132;8.230;2023-05-07T06:05:54;102104.84;;;9.54;80.38
80401;BME280;69727;53.132;8.230;2023-05-07T06:08:19;102103.97;;;9.55;80.82
80401;BME280;69727;53.132;8.230;2023-05-07T06:10:45;102085.44;;;9.48;80.52
80401;BME280;69727;53.132;8.230;2023-05-07T06:13:10;102102.19;;;9.57;80.35
80401;BME280;69727;53.132;8.230;2023-05-07T06:15:36;102085.44;;;9.51;79.98
80401;BME280;69727;53.132;8.230;2023-05-07T06:18:01;102077.53;;;9.54;80.50
80401;BME280;69727;53.132;8.230;2023-05-07T06:20:27;102092.53;;;9.58;80.34
80401;BME280;69727;53.132;8.230;2023-05-07T06:22:52;102082.84;;;9.57;80.39
80401;BME280;69727;53.132;8.230;2023-05-07T06:25:17;102064.38;;;9.60;79.81
80401;BME280;69727;53.132;8.230;2023-05-07T06:27:43;102070.59;;;9.76;80.36
80401;BME280;69727;53.132;8.230;2023-05-07T06:30:08;102081.16;;;9.76;79.81
80401;BME280;69727;53.132;8.230;2023-05-07T06:32:34;102085.56;;;9.74;80.42
80401;BME280;69727;53.132;8.230;2023-05-07T06:34:59;102077.66;;;9.77;80.83
80401;BME280;69727;53.132;8.230;2023-05-07T06:37:25;102064.47;;;9.85;80.57
80401;BME280;69727;53.132;8.230;2023-05-07T06:39:50;102066.22;;;9.89;80.12
80401;BME280;69727;53.132;8.230;2023-05-07T06:42:16;102062.69;;;9.78;79.81
80401;BME280;69727;53.132;8.230;2023-05-07T06:44:41;102079.47;;;9.87;79.97
80401;BME280;69727;53.132;8.230;2023-05-07T06:47:07;102087.41;;;9.98;80.07
80401;BME280;69727;53.132;8.230;2023-05-07T06:49:32;102077.75;;;9.99;79.94
80401;BME280;69727;53.132;8.230;2023-05-07T06:51:58;102071.56;;;10.01;78.94
80401;BME280;69727;53.132;8.230;2023-05-07T06:54:23;102068.03;;;10.01;79.23
80401;BME280;69727;53.132;8.230;2023-05-07T06:56:49;102090.09;;;10.15;79.14
80401;BME280;69727;53.132;8.230;2023-05-07T06:59:15;102095.38;;;10.14;78.16
80401;BME280;69727;53.132;8.230;2023-05-07T07:01:40;102096.28;;;10.14;78.99
80401;BME280;69727;53.132;8.230;2023-05-07T07:04:06;102100.69;;;10.18;79.17
80401;BME280;69727;53.132;8.230;2023-05-07T07:06:31;102106.88;;;10.23;78.22
80401;BME280;69727;53.132;8.230;2023-05-07T07:08:58;102106.88;;;10.20;78.29
80401;BME280;69727;53.132;8.230;2023-05-07T07:11:23;102117.50;;;10.33;78.14
80401;BME280;69727;53.132;8.230;2023-05-07T07:13:49;102121.00;;;10.25;76.90
80401;BME280;69727;53.132;8.230;2023-05-07T07:16:15;102111.22;;;10.07;77.41
80401;BME280;69727;53.132;8.230;2023-05-07T07:18:41;102129.75;;;10.17;77.26
80401;BME280;69727;53.132;8.230;2023-05-07T07:21:06;102114.81;;;10.20;76.86
80401;BME280;69727;53.132;8.230;2023-05-07T07:23:34;102104.25;;;10.19;76.68
80401;BME280;69727;53.132;8.230;2023-05-07T07:26:00;102134.28;;;10.41;76.64
80401;BME280;69727;53.132;8.230;2023-05-07T07:28:25;102112.16;;;10.31;75.65
80401;BME280;69727;53.132;8.230;2023-05-07T07:30:51;102110.44;;;10.30;75.94
80401;BME280;69727;53.132;8.230;2023-05-07T07:33:16;102129.00;;;10.44;75.37
80401;BME280;69727;53.132;8.230;2023-05-07T07:35:42;102114.88;;;10.39;75.77
80401;BME280;69727;53.132;8.230;2023-05-07T07:38:07;102126.38;;;10.47;75.21
80401;BME280;69727;53.132;8.230;2023-05-07T07:40:36;102113.13;;;10.41;75.23
80401;BME280;69727;53.132;8.230;2023-05-07T07:43:01;102097.25;;;10.36;75.48
80401;BME280;69727;53.132;8.230;2023-05-07T07:45:27;102113.16;;;10.50;75.54
80401;BME280;69727;53.132;8.230;2023-05-07T07:47:52;102117.56;;;10.56;74.53
80401;BME280;69727;53.132;8.230;2023-05-07T07:50:18;102127.28;;;10.69;74.21
80401;BME280;69727;53.132;8.230;2023-05-07T07:52:43;102117.56;;;10.59;74.40
80401;BME280;69727;53.132;8.230;2023-05-07T07:55:09;102135.22;;;10.71;74.02
80401;BME280;69727;53.132;8.230;2023-05-07T07:57:34;102136.97;;;10.70;73.93
80401;BME280;69727;53.132;8.230;2023-05-07T08:00:00;102137.88;;;10.71;74.05
80401;BME280;69727;53.132;8.230;2023-05-07T08:02:26;102130.81;;;10.76;73.59
80401;BME280;69727;53.132;8.230;2023-05-07T08:04:51;102127.25;;;10.58;74.46
80401;BME280;69727;53.132;8.230;2023-05-07T08:07:17;102141.41;;;10.79;74.88
80401;BME280;69727;53.132;8.230;2023-05-07T08:09:45;102134.34;;;10.92;74.54
80401;BME280;69727;53.132;8.230;2023-05-07T08:12:11;102137.00;;;10.99;75.75
80401;BME280;69727;53.132;8.230;2023-05-07T08:14:36;102136.13;;;11.04;74.32
80401;BME280;69727;53.132;8.230;2023-05-07T08:17:02;102136.13;;;11.04;75.34
80401;BME280;69727;53.132;8.230;2023-05-07T08:19:28;102143.16;;;11.03;75.00
80401;BME280;69727;53.132;8.230;2023-05-07T08:21:53;102149.34;;;10.94;74.95
80401;BME280;69727;53.132;8.230;2023-05-07T08:24:18;102151.13;;;10.86;75.05
80401;BME280;69727;53.132;8.230;2023-05-07T08:26:44;102142.25;;;10.73;74.89
80401;BME280;69727;53.132;8.230;2023-05-07T08:29:10;102129.91;;;10.57;75.09
80401;BME280;69727;53.132;8.230;2023-05-07T08:31:35;102144.03;;;10.70;75.14
80401;BME280;69727;53.132;8.230;2023-05-07T08:34:01;102139.59;;;10.69;75.06
80401;BME280;69727;53.132;8.230;2023-05-07T08:36:26;102131.66;;;10.61;74.42
80401;BME280;69727;53.132;8.230;2023-05-07T08:38:52;102146.69;;;10.71;74.78
80401;BME280;69727;53.132;8.230;2023-05-07T08:41:18;102129.00;;;10.56;74.92
80401;BME280;69727;53.132;8.230;2023-05-07T08:43:47;102147.56;;;10.72;75.78
80401;BME280;69727;53.132;8.230;2023-05-07T08:46:17;102144.91;;;10.76;76.56
80401;BME280;69727;53.132;8.230;2023-05-07T08:48:44;102142.28;;;10.86;75.96
80401;BME280;69727;53.132;8.230;2023-05-07T08:51:12;102148.44;;;11.03;75.56
80401;BME280;69727;53.132;8.230;2023-05-07T08:53:40;102140.50;;;11.03;75.39
80401;BME280;69727;53.132;8.230;2023-05-07T08:56:07;102143.16;;;11.05;73.98
80401;BME280;69727;53.132;8.230;2023-05-07T08:58:33;102138.75;;;10.97;73.71
80401;BME280;69727;53.132;8.230;2023-05-07T09:01:00;102136.13;;;11.07;73.57
80401;BME280;69727;53.132;8.230;2023-05-07T09:03:28;102123.75;;;11.04;73.32
80401;BME280;69727;53.132;8.230;2023-05-07T09:05:53;102139.63;;;11.21;72.68
80401;BME280;69727;53.132;8.230;2023-05-07T09:08:19;102116.69;;;11.15;72.27
80401;BME280;69727;53.132;8.230;2023-05-07T09:10:49;102110.50;;;11.24;71.07
80401;BME280;69727;53.132;8.230;2023-05-07T09:13:14;102136.03;;;11.50;71.15
80401;BME280;69727;53.132;8.230;2023-05-07T09:15:40;102127.19;;;11.62;71.04
80401;BME280;69727;53.132;8.230;2023-05-07T09:18:06;102134.22;;;11.75;70.36
80401;BME280;69727;53.132;8.230;2023-05-07T09:20:31;102147.44;;;11.92;70.68
80401;BME280;69727;53.132;8.230;2023-05-07T09:22:57;102128.88;;;11.97;70.09
80401;BME280;69727;53.132;8.230;2023-05-07T09:25:31;102120.91;;;12.00;69.81
80401;BME280;69727;53.132;8.230;2023-05-07T09:27:57;102123.50;;;12.12;68.75
80401;BME280;69727;53.132;8.230;2023-05-07T09:30:27;102142.00;;;12.26;68.43
80401;BME280;69727;53.132;8.230;2023-05-07T09:32:53;102144.69;;;12.21;68.26
80401;BME280;69727;53.132;8.230;2023-05-07T09:35:18;102126.97;;;12.23;68.30
80401;BME280;69727;53.132;8.230;2023-05-07T09:37:46;102133.97;;;12.38;67.48
80401;BME280;69727;53.132;8.230;2023-05-07T09:40:22;102128.63;;;12.48;66.95
80401;BME280;69727;53.132;8.230;2023-05-07T09:42:49;102135.66;;;12.49;66.09
80401;BME280;69727;53.132;8.230;2023-05-07T09:45:16;102125.00;;;12.55;66.32
80401;BME280;69727;53.132;8.230;2023-05-07T09:47:43;102135.47;;;12.78;66.58
80401;BME280;69727;53.132;8.230;2023-05-07T09:50:12;102137.25;;;12.80;65.11
80401;BME280;69727;53.132;8.230;2023-05-07T09:52:40;102117.03;;;12.59;65.01
80401;BME280;69727;53.132;8.230;2023-05-07T09:55:07;102141.63;;;12.83;64.86
80401;BME280;69727;53.132;8.230;2023-05-07T09:57:36;102129.13;;;12.94;64.71
80401;BME280;69727;53.132;8.230;2023-05-07T10:00:02;102130.75;;;13.12;64.76
80401;BME280;69727;53.132;8.230;2023-05-07T10:08:56;102149.66;;;13.76;63.75
80401;BME280;69727;53.132;8.230;2023-05-07T10:11:22;102100.19;;;13.61;62.64
80401;BME280;69727;53.132;8.230;2023-05-07T10:13:48;102079.03;;;13.50;61.74
80401;BME280;69727;53.132;8.230;2023-05-07T10:16:14;102096.56;;;13.67;62.75
80401;BME280;69727;53.132;8.230;2023-05-07T10:18:42;102148.38;;;14.08;61.80
80401;BME280;69727;53.132;8.230;2023-05-07T10:21:11;102127.31;;;13.90;61.54
80401;BME280;69727;53.132;8.230;2023-05-07T10:23:41;102135.25;;;13.93;61.49
80401;BME280;69727;53.132;8.230;2023-05-07T10:26:10;102128.91;;;14.04;60.81
80401;BME280;69727;53.132;8.230;2023-05-07T10:28:43;102132.28;;;14.17;60.56
80401;BME280;69727;53.132;8.230;2023-05-07T10:34:00;102131.66;;;13.98;61.09
80401;BME280;69727;53.132;8.230;2023-05-07T10:36:28;102133.16;;;14.16;61.15
80401;BME280;69727;53.132;8.230;2023-05-07T10:38:54;102140.81;;;14.42;60.33
80401;BME280;69727;53.132;8.230;2023-05-07T10:41:20;102139.94;;;14.42;59.68
80401;BME280;69727;53.132;8.230;2023-05-07T10:43:46;102132.56;;;14.59;59.60
80401;BME280;69727;53.132;8.230;2023-05-07T10:46:17;102147.13;;;14.94;60.52
80401;BME280;69727;53.132;8.230;2023-05-07T10:51:32;102139.59;;;15.20;58.17
80401;BME280;69727;53.132;8.230;2023-05-07T10:56:36;102157.06;;;15.38;57.04
80401;BME280;69727;53.132;8.230;2023-05-07T11:02:02;102148.59;;;15.62;56.29
80401;BME280;69727;53.132;8.230;2023-05-07T11:04:30;102153.44;;;15.89;55.65
80401;BME280;69727;53.132;8.230;2023-05-07T11:07:29;102138.00;;;16.04;54.59
80401;BME280;69727;53.132;8.230;2023-05-07T11:09:59;102144.50;;;16.72;54.86
80401;BME280;69727;53.132;8.230;2023-05-07T11:15:01;102139.47;;;17.32;51.34
80401;BME280;69727;53.132;8.230;2023-05-07T11:17:27;102140.88;;;17.45;51.97
80401;BME280;69727;53.132;8.230;2023-05-07T11:19:57;102134.03;;;17.99;51.71
80401;BME280;69727;53.132;8.230;2023-05-07T11:25:06;102126.91;;;17.67;50.23
80401;BME280;69727;53.132;8.230;2023-05-07T11:27:32;102137.91;;;17.89;50.30
80401;BME280;69727;53.132;8.230;2023-05-07T11:29:58;102140.66;;;17.53;50.10
80401;BME280;69727;53.132;8.230;2023-05-07T11:32:29;102148.34;;;16.98;52.08
80401;BME280;69727;53.132;8.230;2023-05-07T11:34:56;102152.19;;;16.86;52.63
80401;BME280;69727;53.132;8.230;2023-05-07T11:37:22;102130.91;;;16.44;52.97
80401;BME280;69727;53.132;8.230;2023-05-07T11:40:07;102146.56;;;16.19;54.24
80401;BME280;69727;53.132;8.230;2023-05-07T11:42:36;102148.75;;;16.00;54.51
80401;BME280;69727;53.132;8.230;2023-05-07T11:45:02;102150.44;;;16.06;55.76
80401;BME280;69727;53.132;8.230;2023-05-07T11:47:30;102137.91;;;16.09;55.03
80401;BME280;69727;53.132;8.230;2023-05-07T11:49:55;102146.00;;;16.04;55.62
80401;BME280;69727;53.132;8.230;2023-05-07T11:52:23;102144.66;;;15.83;55.73
80401;BME280;69727;53.132;8.230;2023-05-07T11:54:53;102136.56;;;15.88;56.47
80401;BME280;69727;53.132;8.230;2023-05-07T11:57:20;102131.97;;;15.95;56.03
80401;BME280;69727;53.132;8.230;2023-05-07T11:59:45;102136.41;;;15.96;55.81
80401;BME280;69727;53.132;8.230;2023-05-07T12:02:28;102143.53;;;15.95;56.13
80401;BME280;69727;53.132;8.230;2023-05-07T12:04:56;102129.53;;;15.84;55.52
80401;BME280;69727;53.132;8.230;2023-05-07T12:07:23;102140.63;;;16.06;55.44
80401;BME280;69727;53.132;8.230;2023-05-07T14:05:25;102102.66;;;20.36;45.66
80401;BME280;69727;53.132;8.230;2023-05-07T14:07:52;102083.38;;;20.70;43.87
80401;BME280;69727;53.132;8.230;2023-05-07T14:10:18;102109.19;;;20.95;44.32
80401;BME280;69727;53.132;8.230;2023-05-07T14:12:44;102103.69;;;20.98;42.83
80401;BME280;69727;53.132;8.230;2023-05-07T14:15:10;102091.50;;;20.69;42.95
80401;BME280;69727;53.132;8.230;2023-05-07T14:17:36;102104.66;;;20.97;43.34
80401;BME280;69727;53.132;8.230;2023-05-07T14:20:08;102110.91;;;21.18;43.02
80401;BME280;69727;53.132;8.230;2023-05-07T14:22:35;102094.69;;;20.99;43.08
80401;BME280;69727;53.132;8.230;2023-05-07T16:13:50;102135.53;;;17.77;50.62
80401;BME280;69727;53.132;8.230;2023-05-07T16:16:16;102134.06;;;17.67;50.85
80401;BME280;69727;53.132;8.230;2023-05-07T16:18:41;102138.13;;;17.80;50.80
80401;BME280;69727;53.132;8.230;2023-05-07T16:21:06;102126.03;;;17.67;50.62
80401;BME280;69727;53.132;8.230;2023-05-07T16:23:32;102147.03;;;17.80;50.61
80401;BME280;69727;53.132;8.230;2023-05-07T16:26:29;102082.00;;;17.47;50.81
80401;BME280;69727;53.132;8.230;2023-05-07T16:29:14;102078.84;;;17.33;50.91
80401;BME280;69727;53.132;8.230;2023-05-07T16:31:40;102153.53;;;17.72;50.28
80401;BME280;69727;53.132;8.230;2023-05-07T16:34:37;102081.53;;;16.98;50.63
80401;BME280;69727;53.132;8.230;2023-05-07T16:45:13;102123.34;;;16.24;53.64
80401;BME280;69727;53.132;8.230;2023-05-07T16:47:46;102100.53;;;16.09;53.68
80401;BME280;69727;53.132;8.230;2023-05-07T16:50:11;102111.47;;;16.37;53.61
80401;BME280;69727;53.132;8.230;2023-05-07T16:55:59;102105.28;;;17.10;51.46
80401;BME280;69727;53.132;8.230;2023-05-07T16:58:28;102153.53;;;17.72;50.64
80401;BME280;69727;53.132;8.230;2023-05-07T17:00:53;102096.84;;;17.59;49.83
80401;BME280;69727;53.132;8.230;2023-05-07T17:03:18;102133.59;;;17.82;49.65
80401;BME280;69727;53.132;8.230;2023-05-07T17:05:44;102166.25;;;17.63;50.22
80401;BME280;69727;53.132;8.230;2023-05-07T17:08:09;102147.97;;;17.46;50.26